sensor_id;sensor_type;location;lat;lon;timestamp;pressure;altitude;pressure_sealevel;temperature;humidity
30598;BME280;17365;48.878;8.334;2022-08-19T00:01:35;99670.16;;;21.86;76.67
30598;BME280;17365;48.878;8.334;2022-08-19T00:04:04;99685.88;;;21.89;76.50
30598;BME280;17365;48.878;8.334;2022-08-19T00:06:30;99686.97;;;21.67;77.68
30598;BME280;17365;48.878;8.334;2022-08-19T00:08:56;99678.28;;;21.65;78.05
30598;BME280;17365;48.878;8.334;2022-08-19T00:11:21;99678.41;;;21.62;78.36
30598;BME280;17365;48.878;8.334;2022-08-19T00:13:47;99681.97;;;21.61;78.20
30598;BME280;17365;48.878;8.334;2022-08-19T00:16:16;99682.22;;;21.57;78.72
30598;BME280;17365;48.878;8.334;2022-08-19T00:18:44;99691.69;;;21.43;79.76
30598;BME280;17365;48.878;8.334;2022-08-19T00:21:09;99681.13;;;21.61;78.78
30598;BME280;17365;48.878;8.334;2022-08-19T00:23:35;99668.19;;;21.56;79.39
30598;BME280;17365;48.878;8.334;2022-08-19T00:26:02;99678.13;;;21.68;78.61
30598;BME280;17365;48.878;8.334;2022-08-19T00:28:28;99677.72;;;21.76;78.40
30598;BME280;17365;48.878;8.334;2022-08-19T00:30:53;99683.44;;;21.84;78.16
30598;BME280;17365;48.878;8.334;2022-08-19T00:33:19;99678.50;;;21.78;79.00
30598;BME280;17365;48.878;8.334;2022-08-19T00:35:44;99680.13;;;21.80;78.96
30598;BME280;17365;48.878;8.334;2022-08-19T00:38:09;99676.16;;;21.89;78.65
30598;BME280;17365;48.878;8.334;2022-08-19T00:40:35;99684.31;;;21.85;79.11
30598;BME280;17365;48.878;8.334;2022-08-19T00:43:00;99678.63;;;21.92;78.64
30598;BME280;17365;48.878;8.334;2022-08-19T00:45:27;99671.81;;;21.88;79.23
30598;BME280;17365;48.878;8.334;2022-08-19T00:47:55;99666.13;;;21.96;79.01
30598;BME280;17365;48.878;8.334;2022-08-19T00:50:21;99650.28;;;21.96;79.18
30598;BME280;17365;48.878;8.334;2022-08-19T00:52:50;99635.22;;;21.98;79.05
30598;BME280;17365;48.878;8.334;2022-08-19T00:55:20;99638.53;;;22.01;79.01
30598;BME280;17365;48.878;8.334;2022-08-19T00:57:52;99653.72;;;21.98;79.29
30598;BME280;17365;48.878;8.334;2022-08-19T01:00:20;99664.97;;;22.01;79.12
30598;BME280;17365;48.878;8.334;2022-08-19T01:02:47;99667.13;;;21.93;79.81
30598;BME280;17365;48.878;8.334;2022-08-19T01:05:17;99675.41;;;21.87;80.09
30598;BME280;17365;48.878;8.334;2022-08-19T01:07:45;99676.84;;;21.93;79.93
30598;BME280;17365;48.878;8.334;2022-08-19T01:10:14;99674.03;;;21.96;79.83
30598;BME280;17365;48.878;8.334;2022-08-19T01:12:40;99665.34;;;21.94;80.03
30598;BME280;17365;48.878;8.334;2022-08-19T01:15:08;99662.19;;;21.70;81.48
30598;BME280;17365;48.878;8.334;2022-08-19T01:17:36;99664.75;;;21.71;81.60
30598;BME280;17365;48.878;8.334;2022-08-19T01:20:04;99657.91;;;21.85;81.08
30598;BME280;17365;48.878;8.334;2022-08-19T01:22:37;99660.47;;;21.86;80.91
30598;BME280;17365;48.878;8.334;2022-08-19T01:25:07;99660.16;;;21.92;80.68
30598;BME280;17365;48.878;8.334;2022-08-19T01:27:40;99669.69;;;21.95;80.81
30598;BME280;17365;48.878;8.334;2022-08-19T01:30:08;99654.75;;;21.78;81.81
30598;BME280;17365;48.878;8.334;2022-08-19T01:32:33;99664.34;;;21.62;82.95
30598;BME280;17365;48.878;8.334;2022-08-19T01:34:59;99665.91;;;21.83;81.38
30598;BME280;17365;48.878;8.334;2022-08-19T01:37:27;99669.81;;;21.76;81.45
30598;BME280;17365;48.878;8.334;2022-08-19T01:39:52;99666.06;;;21.45;83.54
30598;BME280;17365;48.878;8.334;2022-08-19T01:42:18;99656.59;;;21.59;82.69
30598;BME280;17365;48.878;8.334;2022-08-19T01:44:45;99653.66;;;21.65;82.16
30598;BME280;17365;48.878;8.334;2022-08-19T01:47:10;99653.34;;;21.71;81.84
30598;BME280;17365;48.878;8.334;2022-08-19T01:49:36;99653.13;;;21.75;81.53
30598;BME280;17365;48.878;8.334;2022-08-19T01:52:04;99662.66;;;21.78;81.44
30598;BME280;17365;48.878;8.334;2022-08-19T01:54:29;99661.72;;;21.79;81.43
30598;BME280;17365;48.878;8.334;2022-08-19T01:57:04;99663.03;;;21.70;82.44
30598;BME280;17365;48.878;8.334;2022-08-19T01:59:30;99660.22;;;21.73;82.19
30598;BME280;17365;48.878;8.334;2022-08-19T02:01:57;99654.03;;;21.74;81.96
30598;BME280;17365;48.878;8.334;2022-08-19T02:04:22;99658.13;;;21.63;82.78
30598;BME280;17365;48.878;8.334;2022-08-19T02:06:48;99659.88;;;21.64;82.82
30598;BME280;17365;48.878;8.334;2022-08-19T02:09:13;99661.72;;;21.62;82.75
30598;BME280;17365;48.878;8.334;2022-08-19T02:11:41;99664.91;;;21.68;82.57
30598;BME280;17365;48.878;8.334;2022-08-19T02:14:07;99663.66;;;21.58;83.65
30598;BME280;17365;48.878;8.334;2022-08-19T02:16:33;99661.66;;;21.63;83.28
30598;BME280;17365;48.878;8.334;2022-08-19T02:18:59;99676.69;;;21.61;83.62
30598;BME280;17365;48.878;8.334;2022-08-19T02:21:28;99671.28;;;21.64;83.59
30598;BME280;17365;48.878;8.334;2022-08-19T02:23:53;99659.78;;;21.65;83.46
30598;BME280;17365;48.878;8.334;2022-08-19T02:26:19;99664.22;;;21.65;83.84
30598;BME280;17365;48.878;8.334;2022-08-19T02:28:44;99660.47;;;21.69;83.34
30598;BME280;17365;48.878;8.334;2022-08-19T02:31:12;99668.47;;;21.67;83.61
30598;BME280;17365;48.878;8.334;2022-08-19T02:33:38;99671.34;;;21.63;83.92
30598;BME280;17365;48.878;8.334;2022-08-19T02:36:04;99661.59;;;21.65;83.83
30598;BME280;17365;48.878;8.334;2022-08-19T02:38:30;99660.00;;;21.61;84.13
30598;BME280;17365;48.878;8.334;2022-08-19T02:40:59;99655.75;;;21.58;84.13
30598;BME280;17365;48.878;8.334;2022-08-19T02:43:26;99656.13;;;21.68;83.76
30598;BME280;17365;48.878;8.334;2022-08-19T02:45:52;99655.91;;;21.55;84.72
30598;BME280;17365;48.878;8.334;2022-08-19T02:48:20;99654.59;;;21.64;84.21
30598;BME280;17365;48.878;8.334;2022-08-19T02:50:46;99653.09;;;21.58;85.09
30598;BME280;17365;48.878;8.334;2022-08-19T02:53:12;99656.38;;;21.63;84.60
30598;BME280;17365;48.878;8.334;2022-08-19T02:55:45;99650.22;;;21.63;84.62
30598;BME280;17365;48.878;8.334;2022-08-19T02:58:11;99660.34;;;21.55;85.74
30598;BME280;17365;48.878;8.334;2022-08-19T03:00:42;99658.13;;;21.63;85.14
30598;BME280;17365;48.878;8.334;2022-08-19T03:03:08;99661.50;;;21.66;85.09
30598;BME280;17365;48.878;8.334;2022-08-19T03:05:33;99661.34;;;21.69;85.24
30598;BME280;17365;48.878;8.334;2022-08-19T03:07:59;99670.50;;;21.62;86.09
30598;BME280;17365;48.878;8.334;2022-08-19T03:10:24;99676.00;;;21.58;87.03
30598;BME280;17365;48.878;8.334;2022-08-19T03:12:49;99675.06;;;21.59;87.48
30598;BME280;17365;48.878;8.334;2022-08-19T03:15:15;99679.25;;;21.63;87.70
30598;BME280;17365;48.878;8.334;2022-08-19T03:17:40;99673.97;;;21.63;87.99
30598;BME280;17365;48.878;8.334;2022-08-19T03:20:06;99680.84;;;21.67;87.63
30598;BME280;17365;48.878;8.334;2022-08-19T03:22:31;99679.50;;;21.58;88.83
30598;BME280;17365;48.878;8.334;2022-08-19T03:24:57;99680.34;;;21.59;88.98
30598;BME280;17365;48.878;8.334;2022-08-19T03:27:22;99671.50;;;21.60;88.70
30598;BME280;17365;48.878;8.334;2022-08-19T03:29:47;99674.31;;;21.57;89.60
30598;BME280;17365;48.878;8.334;2022-08-19T03:32:13;99672.97;;;21.48;90.33
30598;BME280;17365;48.878;8.334;2022-08-19T03:34:38;99678.66;;;21.58;89.70
30598;BME280;17365;48.878;8.334;2022-08-19T03:37:07;99679.41;;;21.60;89.83
30598;BME280;17365;48.878;8.334;2022-08-19T03:39:34;99682.38;;;21.54;90.07
30598;BME280;17365;48.878;8.334;2022-08-19T03:42:00;99680.72;;;21.51;90.54
30598;BME280;17365;48.878;8.334;2022-08-19T03:44:28;99676.69;;;21.61;89.83
30598;BME280;17365;48.878;8.334;2022-08-19T03:46:57;99674.22;;;21.58;89.92
30598;BME280;17365;48.878;8.334;2022-08-19T03:49:24;99673.47;;;21.56;90.22
30598;BME280;17365;48.878;8.334;2022-08-19T03:51:50;99676.16;;;21.37;91.84
30598;BME280;17365;48.878;8.334;2022-08-19T03:54:19;99675.84;;;21.43;91.34
30598;BME280;17365;48.878;8.334;2022-08-19T03:56:46;99681.13;;;21.43;91.28
30598;BME280;17365;48.878;8.334;2022-08-19T03:59:15;99674.59;;;21.50;90.86
30598;BME280;17365;48.878;8.334;2022-08-19T04:01:41;99683.06;;;21.40;91.86
30598;BME280;17365;48.878;8.334;2022-08-19T04:04:07;99672.44;;;21.41;91.83
30598;BME280;17365;48.878;8.334;2022-08-19T04:06:35;99675.69;;;21.46;91.47
30598;BME280;17365;48.878;8.334;2022-08-19T04:09:03;99684.22;;;21.34;92.48
30598;BME280;17365;48.878;8.334;2022-08-19T04:11:34;99684.63;;;21.25;93.47
30598;BME280;17365;48.878;8.334;2022-08-19T04:14:00;99682.88;;;21.26;93.61
30598;BME280;17365;48.878;8.334;2022-08-19T04:16:27;99689.66;;;21.31;93.39
30598;BME280;17365;48.878;8.334;2022-08-19T04:18:56;99694.00;;;21.32;93.40
30598;BME280;17365;48.878;8.334;2022-08-19T04:21:24;99697.06;;;21.23;94.15
30598;BME280;17365;48.878;8.334;2022-08-19T04:23:50;99696.22;;;21.04;95.87
30598;BME280;17365;48.878;8.334;2022-08-19T04:26:21;99690.09;;;21.03;96.19
30598;BME280;17365;48.878;8.334;2022-08-19T04:28:47;99685.75;;;21.02;96.34
30598;BME280;17365;48.878;8.334;2022-08-19T04:31:32;99686.94;;;21.14;95.24
30598;BME280;17365;48.878;8.334;2022-08-19T04:34:01;99695.19;;;21.25;94.88
30598;BME280;17365;48.878;8.334;2022-08-19T04:36:30;99689.00;;;21.26;94.62
30598;BME280;17365;48.878;8.334;2022-08-19T04:38:58;99690.50;;;21.32;94.06
30598;BME280;17365;48.878;8.334;2022-08-19T04:41:24;99688.47;;;21.37;93.87
30598;BME280;17365;48.878;8.334;2022-08-19T04:44:08;99692.75;;;21.39;93.57
30598;BME280;17365;48.878;8.334;2022-08-19T04:46:33;99698.09;;;21.38;93.53
30598;BME280;17365;48.878;8.334;2022-08-19T04:49:00;99684.72;;;21.42;93.20
30598;BME280;17365;48.878;8.334;2022-08-19T04:51:26;99700.06;;;21.51;92.77
30598;BME280;17365;48.878;8.334;2022-08-19T04:53:52;99708.88;;;21.52;92.86
30598;BME280;17365;48.878;8.334;2022-08-19T04:58:46;99720.28;;;21.53;92.76
30598;BME280;17365;48.878;8.334;2022-08-19T05:01:23;99718.94;;;21.44;93.37
30598;BME280;17365;48.878;8.334;2022-08-19T05:03:49;99722.09;;;21.50;93.09
30598;BME280;17365;48.878;8.334;2022-08-19T05:06:16;99719.09;;;21.58;92.35
30598;BME280;17365;48.878;8.334;2022-08-19T05:08:42;99718.84;;;21.45;93.50
30598;BME280;17365;48.878;8.334;2022-08-19T05:11:15;99720.88;;;21.58;92.69
30598;BME280;17365;48.878;8.334;2022-08-19T05:13:42;99722.88;;;21.35;94.09
30598;BME280;17365;48.878;8.334;2022-08-19T05:16:09;99716.69;;;21.54;93.19
30598;BME280;17365;48.878;8.334;2022-08-19T05:18:34;99723.38;;;21.61;92.63
30598;BME280;17365;48.878;8.334;2022-08-19T05:21:19;99728.41;;;21.48;93.77
30598;BME280;17365;48.878;8.334;2022-08-19T05:24:04;99736.81;;;21.56;93.04
30598;BME280;17365;48.878;8.334;2022-08-19T05:26:37;99735.19;;;21.54;93.19
30598;BME280;17365;48.878;8.334;2022-08-19T05:29:03;99746.06;;;21.65;92.37
30598;BME280;17365;48.878;8.334;2022-08-19T05:31:29;99746.66;;;21.70;92.03
30598;BME280;17365;48.878;8.334;2022-08-19T05:33:55;99750.31;;;21.85;91.08
30598;BME280;17365;48.878;8.334;2022-08-19T05:36:23;99754.44;;;21.73;91.19
30598;BME280;17365;48.878;8.334;2022-08-19T05:38:48;99753.06;;;21.66;92.38
30598;BME280;17365;48.878;8.334;2022-08-19T05:41:15;99761.41;;;21.74;91.71
30598;BME280;17365;48.878;8.334;2022-08-19T05:43:41;99764.72;;;21.79;91.27
30598;BME280;17365;48.878;8.334;2022-08-19T05:46:07;99768.88;;;21.66;91.41
30598;BME280;17365;48.878;8.334;2022-08-19T05:48:33;99775.03;;;21.66;91.96
30598;BME280;17365;48.878;8.334;2022-08-19T05:51:06;99775.22;;;21.62;91.58
30598;BME280;17365;48.878;8.334;2022-08-19T05:53:33;99775.22;;;21.62;92.22
30598;BME280;17365;48.878;8.334;2022-08-19T05:56:07;99784.81;;;21.82;90.49
30598;BME280;17365;48.878;8.334;2022-08-19T05:58:33;99784.34;;;21.73;90.86
30598;BME280;17365;48.878;8.334;2022-08-19T06:00:59;99784.81;;;21.82;90.33
30598;BME280;17365;48.878;8.334;2022-08-19T06:03:30;99778.81;;;21.61;91.53
30598;BME280;17365;48.878;8.334;2022-08-19T06:05:55;99780.75;;;21.74;91.00
30598;BME280;17365;48.878;8.334;2022-08-19T06:08:21;99785.50;;;21.85;90.23
30598;BME280;17365;48.878;8.334;2022-08-19T06:10:46;99771.41;;;21.86;89.90
30598;BME280;17365;48.878;8.334;2022-08-19T06:13:11;99773.72;;;21.92;89.45
30598;BME280;17365;48.878;8.334;2022-08-19T06:15:36;99782.88;;;21.85;89.82
30598;BME280;17365;48.878;8.334;2022-08-19T06:18:02;99776.44;;;21.91;89.53
30598;BME280;17365;48.878;8.334;2022-08-19T06:20:27;99778.53;;;22.01;88.46
30598;BME280;17365;48.878;8.334;2022-08-19T06:22:52;99774.03;;;22.03;88.47
30598;BME280;17365;48.878;8.334;2022-08-19T06:25:18;99785.31;;;22.07;88.00
30598;BME280;17365;48.878;8.334;2022-08-19T06:27:44;99783.06;;;21.99;88.67
30598;BME280;17365;48.878;8.334;2022-08-19T06:30:10;99789.66;;;21.91;89.14
30598;BME280;17365;48.878;8.334;2022-08-19T06:32:37;99790.34;;;21.94;88.67
30598;BME280;17365;48.878;8.334;2022-08-19T06:35:03;99797.25;;;21.79;89.33
30598;BME280;17365;48.878;8.334;2022-08-19T06:37:29;99802.47;;;21.98;88.31
30598;BME280;17365;48.878;8.334;2022-08-19T06:39:55;99802.16;;;22.04;87.93
30598;BME280;17365;48.878;8.334;2022-08-19T06:42:20;99799.84;;;22.16;87.21
30598;BME280;17365;48.878;8.334;2022-08-19T06:44:47;99803.00;;;22.05;87.68
30598;BME280;17365;48.878;8.334;2022-08-19T06:47:15;99803.41;;;21.97;87.57
30598;BME280;17365;48.878;8.334;2022-08-19T06:49:41;99795.09;;;22.05;88.02
30598;BME280;17365;48.878;8.334;2022-08-19T06:52:07;99798.72;;;22.21;86.60
30598;BME280;17365;48.878;8.334;2022-08-19T06:54:32;99802.09;;;22.06;87.82
30598;BME280;17365;48.878;8.334;2022-08-19T06:56:59;99799.88;;;22.33;86.09
30598;BME280;17365;48.878;8.334;2022-08-19T06:59:29;99801.78;;;22.47;85.46
30598;BME280;17365;48.878;8.334;2022-08-19T07:01:57;99807.31;;;22.07;87.20
30598;BME280;17365;48.878;8.334;2022-08-19T07:04:27;99807.31;;;22.25;87.18
30598;BME280;17365;48.878;8.334;2022-08-19T07:06:58;99809.06;;;22.59;85.26
30598;BME280;17365;48.878;8.334;2022-08-19T07:09:24;99804.72;;;22.58;84.20
30598;BME280;17365;48.878;8.334;2022-08-19T07:11:51;99799.25;;;22.78;82.89
30598;BME280;17365;48.878;8.334;2022-08-19T07:14:21;99808.03;;;22.79;81.78
30598;BME280;17365;48.878;8.334;2022-08-19T07:16:48;99814.31;;;22.76;81.23
30598;BME280;17365;48.878;8.334;2022-08-19T07:19:14;99802.38;;;23.02;80.91
30598;BME280;17365;48.878;8.334;2022-08-19T07:21:40;99803.91;;;23.06;80.14
30598;BME280;17365;48.878;8.334;2022-08-19T07:24:06;99803.38;;;22.84;80.06
30598;BME280;17365;48.878;8.334;2022-08-19T07:26:38;99805.31;;;23.13;78.12
30598;BME280;17365;48.878;8.334;2022-08-19T07:29:04;99814.19;;;23.28;78.49
30598;BME280;17365;48.878;8.334;2022-08-19T07:31:30;99807.75;;;23.32;77.77
30598;BME280;17365;48.878;8.334;2022-08-19T07:33:56;99802.22;;;23.37;78.46
30598;BME280;17365;48.878;8.334;2022-08-19T07:36:24;99801.91;;;23.11;78.57
30598;BME280;17365;48.878;8.334;2022-08-19T07:38:51;99801.28;;;23.06;78.46
30598;BME280;17365;48.878;8.334;2022-08-19T07:41:22;99807.16;;;23.43;77.03
30598;BME280;17365;48.878;8.334;2022-08-19T07:43:49;99803.19;;;23.67;76.00
30598;BME280;17365;48.878;8.334;2022-08-19T07:46:15;99807.84;;;23.78;74.90
30598;BME280;17365;48.878;8.334;2022-08-19T07:48:42;99802.72;;;23.91;74.04
30598;BME280;17365;48.878;8.334;2022-08-19T07:51:16;99801.34;;;23.84;74.17
30598;BME280;17365;48.878;8.334;2022-08-19T07:53:42;99801.31;;;23.99;72.79
30598;BME280;17365;48.878;8.334;2022-08-19T07:56:10;99796.88;;;24.00;72.73
30598;BME280;17365;48.878;8.334;2022-08-19T07:58:38;99805.09;;;23.95;72.51
30598;BME280;17365;48.878;8.334;2022-08-19T08:01:06;99802.06;;;23.71;72.65
30598;BME280;17365;48.878;8.334;2022-08-19T08:03:32;99807.72;;;23.34;74.19
30598;BME280;17365;48.878;8.334;2022-08-19T08:06:16;99812.06;;;23.35;73.95
30598;BME280;17365;48.878;8.334;2022-08-19T08:09:00;99806.84;;;23.17;73.81
30598;BME280;17365;48.878;8.334;2022-08-19T08:11:52;99807.97;;;23.61;71.30
30598;BME280;17365;48.878;8.334;2022-08-19T08:14:25;99803.88;;;23.71;70.31
30598;BME280;17365;48.878;8.334;2022-08-19T08:16:51;99807.56;;;23.98;69.18
30598;BME280;17365;48.878;8.334;2022-08-19T08:19:19;99802.91;;;24.48;68.55
30598;BME280;17365;48.878;8.334;2022-08-19T08:21:45;99800.34;;;24.75;66.71
30598;BME280;17365;48.878;8.334;2022-08-19T08:24:11;99791.63;;;25.01;65.97
30598;BME280;17365;48.878;8.334;2022-08-19T08:26:37;99798.81;;;25.13;64.60
30598;BME280;17365;48.878;8.334;2022-08-19T08:29:03;99805.84;;;25.29;63.50
30598;BME280;17365;48.878;8.334;2022-08-19T08:31:28;99804.81;;;25.03;62.76
30598;BME280;17365;48.878;8.334;2022-08-19T08:33:54;99800.19;;;25.47;63.62
30598;BME280;17365;48.878;8.334;2022-08-19T08:36:19;99802.75;;;25.49;62.84
30598;BME280;17365;48.878;8.334;2022-08-19T08:38:45;99799.47;;;25.58;61.97
30598;BME280;17365;48.878;8.334;2022-08-19T08:41:22;99802.94;;;25.46;62.68
30598;BME280;17365;48.878;8.334;2022-08-19T08:43:54;99801.44;;;25.83;61.39
30598;BME280;17365;48.878;8.334;2022-08-19T08:46:37;99807.28;;;25.47;59.22
30598;BME280;17365;48.878;8.334;2022-08-19T08:49:20;99804.34;;;25.10;58.52
30598;BME280;17365;48.878;8.334;2022-08-19T08:51:59;99800.25;;;24.76;59.79
30598;BME280;17365;48.878;8.334;2022-08-19T08:54:33;99800.59;;;25.41;58.73
30598;BME280;17365;48.878;8.334;2022-08-19T08:56:59;99809.19;;;25.18;59.17
30598;BME280;17365;48.878;8.334;2022-08-19T08:59:28;99810.97;;;24.60;60.19
30598;BME280;17365;48.878;8.334;2022-08-19T09:01:57;99807.66;;;24.85;58.95
30598;BME280;17365;48.878;8.334;2022-08-19T09:04:22;99805.75;;;24.87;59.39
30598;BME280;17365;48.878;8.334;2022-08-19T09:07:03;99808.59;;;24.26;59.67
30598;BME280;17365;48.878;8.334;2022-08-19T09:09:35;99817.50;;;24.69;57.78
30598;BME280;17365;48.878;8.334;2022-08-19T09:14:55;99803.19;;;24.86;58.04
30598;BME280;17365;48.878;8.334;2022-08-19T09:17:27;99810.81;;;24.03;60.58
30598;BME280;17365;48.878;8.334;2022-08-19T09:22:41;99814.09;;;24.81;59.18
30598;BME280;17365;48.878;8.334;2022-08-19T09:25:10;99809.09;;;25.46;57.45
30598;BME280;17365;48.878;8.334;2022-08-19T09:27:37;99806.66;;;25.43;56.00
30598;BME280;17365;48.878;8.334;2022-08-19T09:30:04;99800.47;;;25.43;55.94
30598;BME280;17365;48.878;8.334;2022-08-19T09:32:29;99798.56;;;25.18;56.46
30598;BME280;17365;48.878;8.334;2022-08-19T09:34:55;99801.66;;;25.66;55.62
30598;BME280;17365;48.878;8.334;2022-08-19T09:37:23;99804.16;;;25.81;54.92
30598;BME280;17365;48.878;8.334;2022-08-19T09:39:49;99800.34;;;26.25;52.82
30598;BME280;17365;48.878;8.334;2022-08-19T09:42:14;99796.66;;;25.47;53.88
30598;BME280;17365;48.878;8.334;2022-08-19T09:44:40;99793.38;;;25.43;55.18
30598;BME280;17365;48.878;8.334;2022-08-19T09:47:06;99792.03;;;25.77;53.90
30598;BME280;17365;48.878;8.334;2022-08-19T09:49:32;99802.81;;;26.28;52.78
30598;BME280;17365;48.878;8.334;2022-08-19T09:51:58;99792.63;;;25.82;52.24
30598;BME280;17365;48.878;8.334;2022-08-19T09:54:24;99803.50;;;25.51;53.34
30598;BME280;17365;48.878;8.334;2022-08-19T09:56:50;99808.41;;;24.59;54.29
30598;BME280;17365;48.878;8.334;2022-08-19T09:59:16;99802.34;;;24.85;54.97
30598;BME280;17365;48.878;8.334;2022-08-19T10:01:41;99816.59;;;25.54;52.94
30598;BME280;17365;48.878;8.334;2022-08-19T10:04:06;99808.00;;;25.77;53.25
30598;BME280;17365;48.878;8.334;2022-08-19T10:06:35;99811.94;;;26.24;50.93
30598;BME280;17365;48.878;8.334;2022-08-19T10:09:00;99807.75;;;25.27;52.01
30598;BME280;17365;48.878;8.334;2022-08-19T10:11:28;99806.88;;;25.94;51.34
30598;BME280;17365;48.878;8.334;2022-08-19T10:13:54;99812.00;;;25.56;49.44
30598;BME280;17365;48.878;8.334;2022-08-19T10:16:21;99802.94;;;25.46;50.93
30598;BME280;17365;48.878;8.334;2022-08-19T10:18:48;99801.25;;;25.99;50.11
30598;BME280;17365;48.878;8.334;2022-08-19T10:21:16;99801.91;;;26.42;48.82
30598;BME280;17365;48.878;8.334;2022-08-19T10:23:46;99808.06;;;26.43;48.75
30598;BME280;17365;48.878;8.334;2022-08-19T10:26:17;99810.94;;;26.39;47.15
30598;BME280;17365;48.878;8.334;2022-08-19T10:28:43;99809.03;;;26.15;46.79
30598;BME280;17365;48.878;8.334;2022-08-19T10:31:20;99805.94;;;26.86;46.93
30598;BME280;17365;48.878;8.334;2022-08-19T10:33:47;99797.56;;;27.28;45.93
30598;BME280;17365;48.878;8.334;2022-08-19T10:36:17;99798.00;;;27.59;45.66
30598;BME280;17365;48.878;8.334;2022-08-19T10:38:44;99791.78;;;27.35;45.48
30598;BME280;17365;48.878;8.334;2022-08-19T10:41:19;99786.31;;;26.99;45.80
30598;BME280;17365;48.878;8.334;2022-08-19T10:43:44;99788.38;;;27.69;45.30
30598;BME280;17365;48.878;8.334;2022-08-19T10:46:14;99781.13;;;27.71;44.97
30598;BME280;17365;48.878;8.334;2022-08-19T10:48:41;99785.13;;;27.16;45.61
30598;BME280;17365;48.878;8.334;2022-08-19T10:51:06;99785.34;;;27.01;46.13
30598;BME280;17365;48.878;8.334;2022-08-19T10:53:50;99780.00;;;27.50;45.40
30598;BME280;17365;48.878;8.334;2022-08-19T10:56:16;99764.91;;;28.45;43.48
30598;BME280;17365;48.878;8.334;2022-08-19T10:59:05;99774.00;;;27.35;45.06
30598;BME280;17365;48.878;8.334;2022-08-19T11:01:32;99767.03;;;27.21;45.22
30598;BME280;17365;48.878;8.334;2022-08-19T11:04:02;99768.78;;;26.72;46.54
30598;BME280;17365;48.878;8.334;2022-08-19T11:06:28;99767.34;;;27.41;45.61
30598;BME280;17365;48.878;8.334;2022-08-19T11:08:56;99768.16;;;27.30;45.26
30598;BME280;17365;48.878;8.334;2022-08-19T11:11:22;99766.84;;;27.36;45.31
30598;BME280;17365;48.878;8.334;2022-08-19T11:13:48;99762.38;;;26.87;46.02
30598;BME280;17365;48.878;8.334;2022-08-19T11:16:17;99758.69;;;27.50;44.60
30598;BME280;17365;48.878;8.334;2022-08-19T11:18:46;99758.25;;;27.32;45.21
30598;BME280;17365;48.878;8.334;2022-08-19T11:21:18;99760.78;;;27.34;45.15
30598;BME280;17365;48.878;8.334;2022-08-19T11:23:45;99748.41;;;27.69;45.14
30598;BME280;17365;48.878;8.334;2022-08-19T11:26:12;99751.03;;;27.21;45.36
30598;BME280;17365;48.878;8.334;2022-08-19T11:28:38;99743.59;;;27.62;44.63
30598;BME280;17365;48.878;8.334;2022-08-19T11:31:04;99744.13;;;27.43;44.71
30598;BME280;17365;48.878;8.334;2022-08-19T11:33:30;99731.59;;;28.26;43.80
30598;BME280;17365;48.878;8.334;2022-08-19T11:35:59;99733.97;;;28.07;44.07
30598;BME280;17365;48.878;8.334;2022-08-19T11:38:26;99732.47;;;27.33;45.80
30598;BME280;17365;48.878;8.334;2022-08-19T11:40:59;99730.44;;;26.87;47.05
30598;BME280;17365;48.878;8.334;2022-08-19T11:43:25;99745.00;;;27.07;46.21
30598;BME280;17365;48.878;8.334;2022-08-19T11:45:51;99742.97;;;26.97;46.68
30598;BME280;17365;48.878;8.334;2022-08-19T11:48:17;99742.88;;;26.99;46.05
30598;BME280;17365;48.878;8.334;2022-08-19T11:50:47;99742.06;;;26.86;46.35
30598;BME280;17365;48.878;8.334;2022-08-19T11:53:12;99751.16;;;26.94;45.74
30598;BME280;17365;48.878;8.334;2022-08-19T11:55:38;99752.00;;;27.20;45.34
30598;BME280;17365;48.878;8.334;2022-08-19T11:58:04;99746.81;;;27.43;45.13
30598;BME280;17365;48.878;8.334;2022-08-19T12:00:32;99739.88;;;27.64;45.01
30598;BME280;17365;48.878;8.334;2022-08-19T12:02:58;99738.66;;;27.92;44.49
30598;BME280;17365;48.878;8.334;2022-08-19T12:05:23;99740.63;;;28.36;43.45
30598;BME280;17365;48.878;8.334;2022-08-19T12:07:48;99737.22;;;28.46;43.64
30598;BME280;17365;48.878;8.334;2022-08-19T12:10:14;99743.78;;;28.53;43.26
30598;BME280;17365;48.878;8.334;2022-08-19T12:12:40;99748.59;;;27.90;44.51
30598;BME280;17365;48.878;8.334;2022-08-19T12:15:08;99744.44;;;28.21;44.23
30598;BME280;17365;48.878;8.334;2022-08-19T12:17:36;99746.28;;;28.21;44.28
30598;BME280;17365;48.878;8.334;2022-08-19T12:20:01;99748.19;;;27.60;44.81
30598;BME280;17365;48.878;8.334;2022-08-19T12:22:26;99752.56;;;27.37;45.35
30598;BME280;17365;48.878;8.334;2022-08-19T12:24:53;99748.88;;;26.77;45.09
30598;BME280;17365;48.878;8.334;2022-08-19T12:27:20;99750.44;;;27.05;44.58
30598;BME280;17365;48.878;8.334;2022-08-19T12:29:45;99762.19;;;26.77;44.93
30598;BME280;17365;48.878;8.334;2022-08-19T12:32:10;99759.28;;;26.80;45.67
30598;BME280;17365;48.878;8.334;2022-08-19T12:34:35;99765.38;;;26.69;46.69
30598;BME280;17365;48.878;8.334;2022-08-19T12:37:04;99758.09;;;26.97;46.15
30598;BME280;17365;48.878;8.334;2022-08-19T12:39:30;99760.38;;;27.27;45.60
30598;BME280;17365;48.878;8.334;2022-08-19T12:41:58;99764.59;;;27.42;45.45
30598;BME280;17365;48.878;8.334;2022-08-19T12:44:23;99761.19;;;27.04;46.22
30598;BME280;17365;48.878;8.334;2022-08-19T12:46:49;99756.28;;;26.97;46.83
30598;BME280;17365;48.878;8.334;2022-08-19T12:49:14;99759.56;;;27.01;47.07
30598;BME280;17365;48.878;8.334;2022-08-19T12:51:41;99757.69;;;26.90;47.31
30598;BME280;17365;48.878;8.334;2022-08-19T12:54:06;99756.00;;;26.77;47.70
30598;BME280;17365;48.878;8.334;2022-08-19T12:56:31;99758.03;;;26.86;47.59
30598;BME280;17365;48.878;8.334;2022-08-19T12:59:01;99755.28;;;27.24;46.75
30598;BME280;17365;48.878;8.334;2022-08-19T13:01:26;99753.47;;;27.24;46.39
30598;BME280;17365;48.878;8.334;2022-08-19T13:03:52;99756.03;;;27.26;46.68
30598;BME280;17365;48.878;8.334;2022-08-19T13:06:18;99748.75;;;27.65;45.37
30598;BME280;17365;48.878;8.334;2022-08-19T13:08:43;99748.22;;;27.83;45.12
30598;BME280;17365;48.878;8.334;2022-08-19T13:11:16;99738.41;;;28.30;43.95